VLG8NW LEST-EGLL
Flight info
| Callsign | VLG8NW |
|---|---|
| Flight time | N/A |
| Altitude | 38000 |
| Route | KORAV N728 KORUL DCT EBOMO DCT RUSIB DCT NOZHU DCT OTMET |
| Aircraft | A320/M-SDE3FGHIRWY/LB1 |
Departure
| Time | 2026-04-28 14:29 |
|---|---|
| Airport | Santiago-Rosalía de Castro Airport (LEST) |
Arrival
| Time | N/A |
|---|---|
| Airport | London Heathrow Airport (EGLL) |
| Time | Latitude | Longitude | Altitude | Speed | Heading |
|---|---|---|---|---|---|
| 2026-04-28 14:10 | 42.89788 | -8.41934 | 1193 ft | 0 kts | 252° |
| 2026-04-28 14:20 | 42.89793 | -8.41911 | 1193 ft | 2 kts | 252° |
| 2026-04-28 14:21 | 42.89796 | -8.41897 | 1193 ft | 2 kts | 252° |
| 2026-04-28 14:21 | 42.89801 | -8.41876 | 1193 ft | 2 kts | 252° |
| 2026-04-28 14:21 | 42.89806 | -8.41854 | 1193 ft | 2 kts | 252° |
| 2026-04-28 14:21 | 42.89811 | -8.41833 | 1193 ft | 2 kts | 252° |
| 2026-04-28 14:22 | 42.89818 | -8.41813 | 1193 ft | 2 kts | 194° |
| 2026-04-28 14:22 | 42.89829 | -8.41811 | 1192 ft | 1 kts | 170° |
| 2026-04-28 14:24 | 42.89808 | -8.41806 | 1193 ft | 8 kts | 168° |
| 2026-04-28 14:24 | 42.89709 | -8.41773 | 1194 ft | 17 kts | 166° |
| 2026-04-28 14:24 | 42.89588 | -8.41734 | 1195 ft | 18 kts | 167° |
| 2026-04-28 14:24 | 42.89461 | -8.41689 | 1197 ft | 19 kts | 165° |
| 2026-04-28 14:25 | 42.89327 | -8.41643 | 1199 ft | 20 kts | 165° |
| 2026-04-28 14:25 | 42.89186 | -8.41595 | 1201 ft | 21 kts | 166° |
| 2026-04-28 14:25 | 42.89038 | -8.41546 | 1202 ft | 23 kts | 166° |
| 2026-04-28 14:25 | 42.88882 | -8.41494 | 1204 ft | 22 kts | 166° |
| 2026-04-28 14:26 | 42.88730 | -8.41443 | 1206 ft | 23 kts | 167° |
| 2026-04-28 14:26 | 42.88569 | -8.41388 | 1208 ft | 24 kts | 165° |
| 2026-04-28 14:26 | 42.88401 | -8.41329 | 1210 ft | 25 kts | 156° |
| 2026-04-28 14:26 | 42.88383 | -8.41178 | 1211 ft | 17 kts | 73° |
| 2026-04-28 14:27 | 42.88473 | -8.41126 | 1212 ft | 16 kts | 348° |
| 2026-04-28 14:27 | 42.88529 | -8.41144 | 1211 ft | 0 kts | 347° |
| 2026-04-28 14:28 | 42.88639 | -8.41178 | 1208 ft | 53 kts | 348° |
| 2026-04-28 14:28 | 42.89240 | -8.41374 | 1200 ft | 120 kts | 348° |
| 2026-04-28 14:29 | 42.90207 | -8.41723 | 1299 ft | 160 kts | 346° |
| 2026-04-28 14:29 | 42.91350 | -8.42169 | 1813 ft | 184 kts | 344° |
| 2026-04-28 14:29 | 42.92675 | -8.42691 | 2461 ft | 213 kts | 347° |
| 2026-04-28 14:29 | 42.94114 | -8.43172 | 3266 ft | 214 kts | 351° |
| 2026-04-28 14:30 | 42.95579 | -8.43583 | 3817 ft | 227 kts | 351° |
| 2026-04-28 14:30 | 42.97161 | -8.43979 | 4505 ft | 234 kts | 358° |
| 2026-04-28 14:30 | 42.98474 | -8.43663 | 5124 ft | 232 kts | 28° |
| 2026-04-28 14:30 | 42.99627 | -8.42160 | 5849 ft | 234 kts | 65° |
| 2026-04-28 14:31 | 43.00175 | -8.40042 | 6537 ft | 241 kts | 72° |
| 2026-04-28 14:31 | 43.00967 | -8.38010 | 7219 ft | 246 kts | 48° |
| 2026-04-28 14:31 | 43.02362 | -8.36576 | 7787 ft | 260 kts | 27° |
| 2026-04-28 14:31 | 43.04009 | -8.35357 | 8341 ft | 278 kts | 28° |
| 2026-04-28 14:32 | 43.05725 | -8.34019 | 9008 ft | 289 kts | 29° |
| 2026-04-28 14:32 | 43.07475 | -8.32625 | 9836 ft | 293 kts | 29° |
| 2026-04-28 14:32 | 43.09274 | -8.31188 | 10394 ft | 307 kts | 29° |
| 2026-04-28 14:32 | 43.11173 | -8.29676 | 10791 ft | 324 kts | 29° |
| 2026-04-28 14:33 | 43.13177 | -8.28086 | 11172 ft | 341 kts | 29° |
| 2026-04-28 14:33 | 43.15282 | -8.26420 | 11558 ft | 357 kts | 30° |
| 2026-04-28 14:33 | 43.17451 | -8.24705 | 12211 ft | 363 kts | 30° |
| 2026-04-28 14:33 | 43.19648 | -8.22968 | 12954 ft | 366 kts | 30° |
| 2026-04-28 14:34 | 43.24095 | -8.19453 | 14328 ft | 372 kts | 30° |
| 2026-04-28 14:34 | 43.26347 | -8.17673 | 14973 ft | 375 kts | 30° |
| 2026-04-28 14:34 | 43.28612 | -8.15877 | 15600 ft | 378 kts | 30° |
| 2026-04-28 14:35 | 43.30897 | -8.14063 | 16239 ft | 380 kts | 30° |
| 2026-04-28 14:35 | 43.33197 | -8.12238 | 16877 ft | 383 kts | 30° |
| 2026-04-28 14:35 | 43.35517 | -8.10395 | 17538 ft | 386 kts | 30° |
| 2026-04-28 14:35 | 43.37851 | -8.08541 | 18218 ft | 390 kts | 30° |
| 2026-04-28 14:36 | 43.40209 | -8.06663 | 18806 ft | 393 kts | 30° |
| 2026-04-28 14:36 | 43.42587 | -8.04764 | 19376 ft | 397 kts | 30° |
| 2026-04-28 14:36 | 43.45023 | -8.02819 | 19948 ft | 402 kts | 30° |
| 2026-04-28 14:36 | 43.47456 | -8.00880 | 20502 ft | 406 kts | 30° |
| 2026-04-28 14:37 | 43.49913 | -7.98921 | 21020 ft | 411 kts | 30° |
| 2026-04-28 14:37 | 43.52401 | -7.96931 | 21525 ft | 415 kts | 29° |
| 2026-04-28 14:37 | 43.54910 | -7.94920 | 22006 ft | 419 kts | 29° |
| 2026-04-28 14:37 | 43.57443 | -7.92888 | 22493 ft | 423 kts | 29° |
| 2026-04-28 14:38 | 43.60001 | -7.90836 | 22965 ft | 427 kts | 29° |
| 2026-04-28 14:38 | 43.62580 | -7.88766 | 23426 ft | 431 kts | 29° |
| 2026-04-28 14:38 | 43.65182 | -7.86673 | 23821 ft | 435 kts | 28° |
| 2026-04-28 14:38 | 43.67805 | -7.84576 | 24206 ft | 437 kts | 28° |
| 2026-04-28 14:39 | 43.70458 | -7.82487 | 24588 ft | 440 kts | 28° |
| 2026-04-28 14:39 | 43.73133 | -7.80402 | 24965 ft | 442 kts | 27° |
| 2026-04-28 14:39 | 43.75821 | -7.78314 | 25332 ft | 445 kts | 27° |
| 2026-04-28 14:39 | 43.78529 | -7.76205 | 25693 ft | 447 kts | 27° |
| 2026-04-28 14:40 | 43.81245 | -7.74081 | 26050 ft | 450 kts | 28° |
| 2026-04-28 14:40 | 43.83052 | -7.72664 | 26307 ft | 451 kts | 28° |
| 2026-04-28 14:40 | 43.86717 | -7.69780 | 26806 ft | 454 kts | 28° |
| 2026-04-28 14:40 | 43.89466 | -7.67609 | 27174 ft | 456 kts | 28° |
| 2026-04-28 14:41 | 43.92227 | -7.65424 | 27534 ft | 458 kts | 28° |
| 2026-04-28 14:41 | 43.95005 | -7.63222 | 27887 ft | 461 kts | 28° |
| 2026-04-28 14:41 | 43.97791 | -7.61012 | 28238 ft | 463 kts | 28° |
| 2026-04-28 14:41 | 44.00597 | -7.58790 | 28564 ft | 465 kts | 28° |
| 2026-04-28 14:42 | 44.03415 | -7.56559 | 28883 ft | 467 kts | 28° |
| 2026-04-28 14:42 | 44.06245 | -7.54314 | 29199 ft | 469 kts | 28° |
| 2026-04-28 14:42 | 44.09089 | -7.52056 | 29506 ft | 472 kts | 28° |
| 2026-04-28 14:42 | 44.11937 | -7.49790 | 29895 ft | 472 kts | 28° |
| 2026-04-28 14:43 | 44.14781 | -7.47518 | 30300 ft | 471 kts | 28° |
| 2026-04-28 14:43 | 44.17622 | -7.45246 | 30690 ft | 470 kts | 28° |
| 2026-04-28 14:43 | 44.20456 | -7.42981 | 31078 ft | 469 kts | 28° |
| 2026-04-28 14:43 | 44.23281 | -7.40724 | 31453 ft | 468 kts | 28° |
| 2026-04-28 14:44 | 44.26111 | -7.38462 | 31837 ft | 468 kts | 28° |
| 2026-04-28 14:44 | 44.28973 | -7.36176 | 32214 ft | 467 kts | 28° |
| 2026-04-28 14:44 | 44.31793 | -7.33918 | 32605 ft | 467 kts | 28° |
| 2026-04-28 14:44 | 44.34608 | -7.31664 | 32981 ft | 467 kts | 28° |
| 2026-04-28 14:45 | 44.37426 | -7.29400 | 33355 ft | 467 kts | 28° |
| 2026-04-28 14:45 | 44.40235 | -7.27137 | 33737 ft | 466 kts | 28° |
| 2026-04-28 14:45 | 44.43044 | -7.24872 | 34111 ft | 466 kts | 28° |
| 2026-04-28 14:45 | 44.45853 | -7.22604 | 34427 ft | 466 kts | 28° |
| 2026-04-28 14:46 | 44.48654 | -7.20340 | 34767 ft | 465 kts | 28° |
| 2026-04-28 14:46 | 44.51454 | -7.18078 | 35099 ft | 464 kts | 28° |
| 2026-04-28 14:46 | 44.54253 | -7.15816 | 35419 ft | 464 kts | 27° |
| 2026-04-28 14:46 | 44.57049 | -7.13551 | 35727 ft | 464 kts | 27° |
| 2026-04-28 14:47 | 44.59837 | -7.11290 | 36037 ft | 463 kts | 27° |
| 2026-04-28 14:47 | 44.62628 | -7.09027 | 36339 ft | 462 kts | 27° |
| 2026-04-28 14:47 | 44.65408 | -7.06768 | 36631 ft | 462 kts | 27° |
| 2026-04-28 14:47 | 44.68189 | -7.04505 | 36919 ft | 461 kts | 27° |
| 2026-04-28 14:48 | 44.70962 | -7.02240 | 37200 ft | 461 kts | 27° |
| 2026-04-28 14:48 | 44.73733 | -6.99979 | 37473 ft | 460 kts | 27° |
| 2026-04-28 14:48 | 44.76502 | -6.97722 | 37740 ft | 460 kts | 27° |
| 2026-04-28 14:48 | 44.79272 | -6.95464 | 37977 ft | 460 kts | 27° |
| 2026-04-28 14:49 | 44.82043 | -6.93201 | 38045 ft | 460 kts | 27° |
| 2026-04-28 14:49 | 44.87571 | -6.88667 | 38051 ft | 460 kts | 27° |
| 2026-04-28 14:50 | 44.93099 | -6.84123 | 38056 ft | 460 kts | 27° |
| 2026-04-28 14:50 | 44.98629 | -6.79574 | 38053 ft | 460 kts | 27° |
| 2026-04-28 14:51 | 45.04164 | -6.75012 | 38058 ft | 460 kts | 27° |
| 2026-04-28 14:51 | 45.09692 | -6.70443 | 38063 ft | 460 kts | 27° |
| 2026-04-28 14:52 | 45.15248 | -6.65821 | 38076 ft | 460 kts | 27° |
| 2026-04-28 14:52 | 45.20763 | -6.61237 | 38075 ft | 460 kts | 27° |
| 2026-04-28 14:53 | 45.25345 | -6.57429 | 38077 ft | 459 kts | 27° |
| 2026-04-28 14:53 | 45.30849 | -6.52838 | 38070 ft | 459 kts | 27° |
| 2026-04-28 14:54 | 45.36354 | -6.48236 | 38072 ft | 459 kts | 27° |
| 2026-04-28 14:54 | 45.41850 | -6.43628 | 38072 ft | 459 kts | 27° |
| 2026-04-28 14:55 | 45.47344 | -6.39009 | 38080 ft | 458 kts | 27° |
| 2026-04-28 14:55 | 45.52839 | -6.34392 | 38086 ft | 458 kts | 27° |
| 2026-04-28 14:56 | 45.58323 | -6.29765 | 38086 ft | 458 kts | 27° |
| 2026-04-28 14:56 | 45.63795 | -6.25124 | 38089 ft | 457 kts | 27° |
| 2026-04-28 14:57 | 45.69263 | -6.20491 | 38083 ft | 456 kts | 27° |
| 2026-04-28 14:57 | 45.74765 | -6.15830 | 38077 ft | 457 kts | 27° |
| 2026-04-28 14:58 | 45.80227 | -6.11186 | 38083 ft | 456 kts | 27° |
| 2026-04-28 14:58 | 45.85678 | -6.06514 | 38081 ft | 457 kts | 27° |
| 2026-04-28 14:59 | 45.91133 | -6.01843 | 38092 ft | 456 kts | 27° |
| 2026-04-28 14:59 | 45.96587 | -5.97171 | 38091 ft | 457 kts | 27° |
| 2026-04-28 15:00 | 46.02048 | -5.92478 | 38085 ft | 457 kts | 27° |
| 2026-04-28 15:00 | 46.07509 | -5.87787 | 38090 ft | 458 kts | 28° |
| 2026-04-28 15:01 | 46.12971 | -5.83070 | 38090 ft | 458 kts | 28° |
| 2026-04-28 15:01 | 46.18441 | -5.78330 | 38094 ft | 458 kts | 28° |
| 2026-04-28 15:02 | 46.23909 | -5.73581 | 38096 ft | 459 kts | 28° |
| 2026-04-28 15:02 | 46.29377 | -5.68813 | 38101 ft | 459 kts | 28° |
| 2026-04-28 15:03 | 46.34847 | -5.64040 | 38103 ft | 459 kts | 28° |
| 2026-04-28 15:03 | 46.40318 | -5.59271 | 38110 ft | 459 kts | 28° |
| 2026-04-28 15:04 | 46.45795 | -5.54486 | 38123 ft | 456 kts | 28° |
| 2026-04-28 15:04 | 46.51220 | -5.49727 | 38123 ft | 455 kts | 29° |
| 2026-04-28 15:05 | 46.56619 | -5.44963 | 38151 ft | 453 kts | 29° |
| 2026-04-28 15:05 | 46.61997 | -5.40222 | 38124 ft | 451 kts | 29° |
| 2026-04-28 15:06 | 46.67363 | -5.35480 | 38115 ft | 451 kts | 29° |
| 2026-04-28 15:06 | 46.72733 | -5.30728 | 38114 ft | 451 kts | 29° |
| 2026-04-28 15:07 | 46.78094 | -5.25964 | 38121 ft | 451 kts | 29° |
| 2026-04-28 15:07 | 46.83450 | -5.21190 | 38132 ft | 451 kts | 29° |
| 2026-04-28 15:08 | 46.88802 | -5.16417 | 38123 ft | 450 kts | 29° |
| 2026-04-28 15:08 | 46.94181 | -5.11607 | 38117 ft | 450 kts | 30° |
| 2026-04-28 15:09 | 46.99510 | -5.06821 | 38119 ft | 449 kts | 30° |
| 2026-04-28 15:09 | 47.04839 | -5.02025 | 38117 ft | 449 kts | 30° |
| 2026-04-28 15:10 | 47.10067 | -4.97312 | 38115 ft | 449 kts | 30° |
| 2026-04-28 15:10 | 47.15387 | -4.92505 | 38111 ft | 449 kts | 30° |
| 2026-04-28 15:11 | 47.20704 | -4.87694 | 38112 ft | 449 kts | 30° |
| 2026-04-28 15:11 | 47.26019 | -4.82874 | 38113 ft | 449 kts | 30° |
| 2026-04-28 15:12 | 47.31340 | -4.78040 | 38110 ft | 449 kts | 30° |
| 2026-04-28 15:12 | 47.36650 | -4.73196 | 38113 ft | 449 kts | 30° |
| 2026-04-28 15:13 | 47.41966 | -4.68343 | 38113 ft | 449 kts | 30° |
| 2026-04-28 15:13 | 47.47281 | -4.63481 | 38110 ft | 449 kts | 30° |
| 2026-04-28 15:14 | 47.52589 | -4.58609 | 38108 ft | 449 kts | 30° |
| 2026-04-28 15:14 | 47.57898 | -4.53714 | 38115 ft | 449 kts | 30° |
| 2026-04-28 15:15 | 47.63129 | -4.48868 | 38111 ft | 449 kts | 30° |
| 2026-04-28 15:15 | 47.68505 | -4.43891 | 38118 ft | 449 kts | 31° |
| 2026-04-28 15:16 | 47.73809 | -4.38985 | 38117 ft | 449 kts | 31° |
| 2026-04-28 15:16 | 47.79104 | -4.34067 | 38118 ft | 448 kts | 31° |
| 2026-04-28 15:17 | 47.84633 | -4.30155 | 38111 ft | 445 kts | 14° |
| 2026-04-28 15:17 | 47.90624 | -4.27634 | 38106 ft | 444 kts | 15° |
| 2026-04-28 15:18 | 47.96560 | -4.25100 | 38115 ft | 443 kts | 15° |
| 2026-04-28 15:18 | 48.02479 | -4.22556 | 38110 ft | 442 kts | 15° |
| 2026-04-28 15:19 | 48.08377 | -4.20023 | 38116 ft | 441 kts | 15° |
| 2026-04-28 15:19 | 48.14276 | -4.17480 | 38119 ft | 441 kts | 15° |
| 2026-04-28 15:20 | 48.20161 | -4.14934 | 38130 ft | 440 kts | 15° |
| 2026-04-28 15:20 | 48.26053 | -4.12375 | 38155 ft | 441 kts | 15° |
| 2026-04-28 15:21 | 48.31932 | -4.09828 | 38165 ft | 440 kts | 15° |
| 2026-04-28 15:21 | 48.37811 | -4.07276 | 38167 ft | 439 kts | 16° |
| 2026-04-28 15:22 | 48.43676 | -4.04716 | 38164 ft | 439 kts | 16° |
| 2026-04-28 15:22 | 48.49525 | -4.02144 | 38168 ft | 438 kts | 16° |
| 2026-04-28 15:23 | 48.55370 | -3.99580 | 38168 ft | 437 kts | 16° |
| 2026-04-28 15:23 | 48.61220 | -3.97027 | 38170 ft | 438 kts | 16° |
| 2026-04-28 15:24 | 48.67009 | -3.94489 | 38171 ft | 438 kts | 16° |
| 2026-04-28 15:24 | 48.72812 | -3.91927 | 38174 ft | 438 kts | 16° |
| 2026-04-28 15:25 | 48.78695 | -3.89318 | 38183 ft | 438 kts | 16° |
| 2026-04-28 15:25 | 48.84544 | -3.86716 | 38190 ft | 437 kts | 16° |
| 2026-04-28 15:26 | 48.90379 | -3.84123 | 38198 ft | 437 kts | 16° |
| 2026-04-28 15:26 | 48.96217 | -3.81525 | 38197 ft | 437 kts | 17° |
| 2026-04-28 15:27 | 49.00862 | -3.78576 | 38200 ft | 436 kts | 25° |
| 2026-04-28 15:27 | 49.06192 | -3.74663 | 38207 ft | 436 kts | 25° |
| 2026-04-28 15:28 | 49.11663 | -3.70650 | 38210 ft | 436 kts | 26° |
| 2026-04-28 15:28 | 49.17131 | -3.66631 | 38214 ft | 436 kts | 26° |
| 2026-04-28 15:29 | 49.22591 | -3.62598 | 38213 ft | 436 kts | 26° |
| 2026-04-28 15:29 | 49.28055 | -3.58560 | 38218 ft | 435 kts | 26° |
| 2026-04-28 15:30 | 49.33543 | -3.54501 | 38209 ft | 435 kts | 26° |
| 2026-04-28 15:30 | 49.39004 | -3.50441 | 38213 ft | 436 kts | 26° |
| 2026-04-28 15:31 | 49.44464 | -3.46373 | 38222 ft | 436 kts | 26° |
| 2026-04-28 15:31 | 49.49922 | -3.42302 | 38222 ft | 436 kts | 26° |
| 2026-04-28 15:32 | 49.54898 | -3.38588 | 38234 ft | 435 kts | 26° |
| 2026-04-28 15:32 | 49.60294 | -3.34401 | 38216 ft | 436 kts | 27° |
| 2026-04-28 15:33 | 49.65765 | -3.30328 | 38224 ft | 437 kts | 26° |
| 2026-04-28 15:33 | 49.71246 | -3.26296 | 38224 ft | 437 kts | 26° |
| 2026-04-28 15:34 | 49.76761 | -3.22168 | 38238 ft | 437 kts | 27° |
| 2026-04-28 15:34 | 49.82222 | -3.18027 | 38237 ft | 437 kts | 27° |
| 2026-04-28 15:35 | 49.87686 | -3.13862 | 38246 ft | 438 kts | 27° |
| 2026-04-28 15:35 | 49.95883 | -3.07607 | 38259 ft | 438 kts | 27° |
| 2026-04-28 15:36 | 50.01348 | -3.03431 | 38260 ft | 437 kts | 27° |
| 2026-04-28 15:36 | 50.06796 | -2.99262 | 38260 ft | 436 kts | 27° |
| 2026-04-28 15:37 | 50.12246 | -2.95092 | 38263 ft | 436 kts | 27° |
| 2026-04-28 15:37 | 50.17681 | -2.90909 | 38263 ft | 435 kts | 27° |
| 2026-04-28 15:38 | 50.23099 | -2.86716 | 38264 ft | 435 kts | 27° |
| 2026-04-28 15:38 | 50.28517 | -2.82521 | 38264 ft | 434 kts | 27° |
| 2026-04-28 15:39 | 50.33926 | -2.78331 | 38261 ft | 434 kts | 27° |
| 2026-04-28 15:39 | 50.39031 | -2.74357 | 37440 ft | 436 kts | 28° |
| 2026-04-28 15:40 | 50.41762 | -2.72229 | 35997 ft | 439 kts | 28° |
| 2026-04-28 15:40 | 50.44518 | -2.70075 | 35086 ft | 431 kts | 28° |
| 2026-04-28 15:40 | 50.47113 | -2.68054 | 34390 ft | 419 kts | 29° |
| 2026-04-28 15:40 | 50.49725 | -2.66014 | 33452 ft | 422 kts | 29° |
| 2026-04-28 15:41 | 50.52448 | -2.63879 | 32517 ft | 442 kts | 29° |
| 2026-04-28 15:41 | 50.55182 | -2.61734 | 31812 ft | 435 kts | 30° |
| 2026-04-28 15:41 | 50.57885 | -2.59614 | 30780 ft | 434 kts | 30° |
| 2026-04-28 15:41 | 50.60540 | -2.57478 | 29397 ft | 422 kts | 34° |
| 2026-04-28 15:42 | 50.62808 | -2.54863 | 28390 ft | 405 kts | 44° |
| 2026-04-28 15:42 | 50.64697 | -2.51612 | 27630 ft | 397 kts | 54° |
| 2026-04-28 15:42 | 50.66130 | -2.47968 | 27059 ft | 388 kts | 64° |
| 2026-04-28 15:42 | 50.67086 | -2.44011 | 26876 ft | 394 kts | 73° |
| 2026-04-28 15:43 | 50.67581 | -2.39744 | 26609 ft | 397 kts | 83° |
| 2026-04-28 15:43 | 50.67551 | -2.35381 | 26326 ft | 398 kts | 90° |
| 2026-04-28 15:43 | 50.67363 | -2.31040 | 26048 ft | 397 kts | 90° |
| 2026-04-28 15:43 | 50.67172 | -2.26736 | 25771 ft | 395 kts | 90° |
| 2026-04-28 15:44 | 50.66978 | -2.22434 | 25494 ft | 393 kts | 90° |
| 2026-04-28 15:44 | 50.66784 | -2.18148 | 25219 ft | 391 kts | 90° |
| 2026-04-28 15:44 | 50.66592 | -2.13878 | 24940 ft | 389 kts | 90° |
| 2026-04-28 15:44 | 50.66400 | -2.09630 | 24671 ft | 388 kts | 90° |
| 2026-04-28 15:45 | 50.66209 | -2.05399 | 24399 ft | 386 kts | 90° |
| 2026-04-28 15:45 | 50.66095 | -2.01200 | 24131 ft | 382 kts | 86° |
| 2026-04-28 15:45 | 50.66156 | -1.97014 | 23876 ft | 381 kts | 86° |
| 2026-04-28 15:45 | 50.66213 | -1.92857 | 23585 ft | 380 kts | 86° |
| 2026-04-28 15:46 | 50.66263 | -1.88690 | 23325 ft | 379 kts | 86° |
| 2026-04-28 15:46 | 50.66308 | -1.84535 | 23071 ft | 379 kts | 86° |
| 2026-04-28 15:46 | 50.66355 | -1.80392 | 22816 ft | 378 kts | 87° |
| 2026-04-28 15:46 | 50.66405 | -1.76249 | 22556 ft | 378 kts | 87° |
| 2026-04-28 15:47 | 50.66453 | -1.72118 | 22303 ft | 377 kts | 87° |
| 2026-04-28 15:47 | 50.66493 | -1.67990 | 22047 ft | 376 kts | 88° |
| 2026-04-28 15:47 | 50.66533 | -1.63821 | 21789 ft | 376 kts | 88° |
| 2026-04-28 15:47 | 50.66572 | -1.59774 | 21545 ft | 375 kts | 88° |
| 2026-04-28 15:48 | 50.66844 | -1.55649 | 21283 ft | 373 kts | 78° |
| 2026-04-28 15:48 | 50.67576 | -1.51734 | 20910 ft | 372 kts | 69° |
| 2026-04-28 15:48 | 50.68686 | -1.48053 | 20495 ft | 371 kts | 65° |
| 2026-04-28 15:48 | 50.69833 | -1.44410 | 20092 ft | 370 kts | 65° |
| 2026-04-28 15:49 | 50.70968 | -1.40780 | 19688 ft | 369 kts | 65° |
| 2026-04-28 15:49 | 50.72094 | -1.37151 | 19289 ft | 367 kts | 66° |
| 2026-04-28 15:49 | 50.73208 | -1.33536 | 18888 ft | 366 kts | 66° |
| 2026-04-28 15:49 | 50.74308 | -1.29932 | 18485 ft | 364 kts | 66° |
| 2026-04-28 15:50 | 50.75506 | -1.26405 | 18054 ft | 365 kts | 59° |
| 2026-04-28 15:50 | 50.77085 | -1.23300 | 17662 ft | 367 kts | 49° |
| 2026-04-28 15:50 | 50.79058 | -1.20679 | 17258 ft | 370 kts | 38° |
| 2026-04-28 15:50 | 50.81207 | -1.18466 | 16857 ft | 369 kts | 37° |
| 2026-04-28 15:51 | 50.83356 | -1.16260 | 16456 ft | 367 kts | 37° |
| 2026-04-28 15:51 | 50.85490 | -1.14058 | 16056 ft | 366 kts | 37° |
| 2026-04-28 15:51 | 50.87614 | -1.11857 | 15662 ft | 364 kts | 37° |
| 2026-04-28 15:51 | 50.89724 | -1.09666 | 15268 ft | 363 kts | 37° |
| 2026-04-28 15:52 | 50.91834 | -1.07474 | 14864 ft | 362 kts | 37° |
| 2026-04-28 15:52 | 50.93553 | -1.05690 | 14552 ft | 360 kts | 37° |
| 2026-04-28 15:52 | 50.95645 | -1.03517 | 14160 ft | 358 kts | 37° |
| 2026-04-28 15:52 | 50.97728 | -1.01358 | 13749 ft | 357 kts | 37° |
| 2026-04-28 15:53 | 50.99813 | -0.99146 | 13346 ft | 353 kts | 40° |
| 2026-04-28 15:53 | 51.01617 | -0.96562 | 12863 ft | 348 kts | 50° |
| 2026-04-28 15:53 | 51.03215 | -0.93707 | 12280 ft | 343 kts | 51° |
| 2026-04-28 15:53 | 51.04794 | -0.90886 | 11728 ft | 341 kts | 51° |
| 2026-04-28 15:54 | 51.06364 | -0.88086 | 11176 ft | 337 kts | 51° |
| 2026-04-28 15:54 | 51.07908 | -0.85331 | 10859 ft | 326 kts | 51° |
| 2026-04-28 15:54 | 51.09375 | -0.82717 | 10735 ft | 309 kts | 51° |
| 2026-04-28 15:54 | 51.10774 | -0.80226 | 10615 ft | 294 kts | 51° |
| 2026-04-28 15:55 | 51.12103 | -0.77856 | 10491 ft | 281 kts | 51° |
| 2026-04-28 15:55 | 51.13380 | -0.75575 | 10346 ft | 271 kts | 52° |
| 2026-04-28 15:55 | 51.14554 | -0.73475 | 10259 ft | 265 kts | 52° |
| 2026-04-28 15:55 | 51.15805 | -0.71230 | 10190 ft | 267 kts | 52° |
| 2026-04-28 15:56 | 51.17031 | -0.69023 | 9896 ft | 265 kts | 52° |
| 2026-04-28 15:56 | 51.18253 | -0.66825 | 9598 ft | 264 kts | 52° |
| 2026-04-28 15:56 | 51.19463 | -0.64650 | 9305 ft | 262 kts | 52° |
| 2026-04-28 15:56 | 51.20690 | -0.62443 | 9013 ft | 262 kts | 52° |
| 2026-04-28 15:57 | 51.21881 | -0.60297 | 8737 ft | 261 kts | 52° |
| 2026-04-28 15:57 | 51.23079 | -0.58143 | 8460 ft | 258 kts | 52° |
| 2026-04-28 15:57 | 51.24269 | -0.55996 | 8179 ft | 258 kts | 52° |
| 2026-04-28 15:57 | 51.25452 | -0.53857 | 7899 ft | 255 kts | 52° |
| 2026-04-28 15:58 | 51.26622 | -0.51743 | 7624 ft | 253 kts | 52° |
| 2026-04-28 15:58 | 51.27787 | -0.49643 | 7426 ft | 248 kts | 52° |
| 2026-04-28 15:58 | 51.28549 | -0.48315 | 7345 ft | 243 kts | 47° |
| 2026-04-28 15:58 | 51.30014 | -0.47059 | 7242 ft | 245 kts | 15° |
| 2026-04-28 15:59 | 51.31707 | -0.47362 | 7100 ft | 253 kts | 342° |
| 2026-04-28 15:59 | 51.33124 | -0.49146 | 6739 ft | 264 kts | 318° |
| 2026-04-28 15:59 | 51.34368 | -0.51326 | 6204 ft | 264 kts | 310° |
| 2026-04-28 15:59 | 51.35572 | -0.53514 | 6048 ft | 251 kts | 310° |
| 2026-04-28 16:00 | 51.36707 | -0.55585 | 5610 ft | 245 kts | 310° |
| 2026-04-28 16:00 | 51.37814 | -0.57598 | 5080 ft | 243 kts | 311° |
| 2026-04-28 16:00 | 51.38942 | -0.59638 | 4533 ft | 241 kts | 311° |
| 2026-04-28 16:00 | 51.40042 | -0.61617 | 3995 ft | 239 kts | 311° |
| 2026-04-28 16:01 | 51.41164 | -0.63628 | 3529 ft | 240 kts | 311° |
| 2026-04-28 16:01 | 51.42268 | -0.65598 | 3254 ft | 235 kts | 311° |
| 2026-04-28 16:01 | 51.43333 | -0.67494 | 3026 ft | 220 kts | 311° |
| 2026-04-28 16:01 | 51.44481 | -0.68939 | 2824 ft | 208 kts | 340° |
| 2026-04-28 16:02 | 51.45907 | -0.69182 | 2939 ft | 210 kts | 4° |
| 2026-04-28 16:02 | 51.47230 | -0.68286 | 2515 ft | 212 kts | 49° |
| 2026-04-28 16:02 | 51.47767 | -0.66177 | 2240 ft | 206 kts | 92° |
| 2026-04-28 16:02 | 51.47678 | -0.63907 | 1986 ft | 201 kts | 92° |